sensor_id;sensor_type;location;lat;lon;timestamp;P1;durP1;ratioP1;P2;durP2;ratioP2
27612;SDS011;15036;48.094;-1.690;2023-04-03T00:01:08;12.60;;;4.70;;
27612;SDS011;15036;48.094;-1.690;2023-04-03T00:03:34;14.02;;;4.60;;
27612;SDS011;15036;48.094;-1.690;2023-04-03T00:05:59;13.37;;;4.80;;
27612;SDS011;15036;48.094;-1.690;2023-04-03T00:08:25;15.10;;;4.90;;
27612;SDS011;15036;48.094;-1.690;2023-04-03T00:10:51;14.67;;;4.83;;
27612;SDS011;15036;48.094;-1.690;2023-04-03T00:13:16;12.63;;;4.82;;
27612;SDS011;15036;48.094;-1.690;2023-04-03T00:15:42;12.98;;;5.03;;
27612;SDS011;15036;48.094;-1.690;2023-04-03T00:18:07;13.50;;;5.15;;
27612;SDS011;15036;48.094;-1.690;2023-04-03T00:20:33;14.98;;;5.60;;
27612;SDS011;15036;48.094;-1.690;2023-04-03T00:22:59;13.90;;;5.40;;
27612;SDS011;15036;48.094;-1.690;2023-04-03T00:25:26;13.88;;;7.38;;
27612;SDS011;15036;48.094;-1.690;2023-04-03T00:27:51;13.77;;;6.13;;
27612;SDS011;15036;48.094;-1.690;2023-04-03T00:30:17;14.63;;;6.30;;
27612;SDS011;15036;48.094;-1.690;2023-04-03T00:32:47;14.00;;;6.32;;
27612;SDS011;15036;48.094;-1.690;2023-04-03T00:35:13;12.93;;;6.30;;
27612;SDS011;15036;48.094;-1.690;2023-04-03T00:37:40;14.60;;;5.45;;
27612;SDS011;15036;48.094;-1.690;2023-04-03T00:40:07;16.20;;;7.95;;
27612;SDS011;15036;48.094;-1.690;2023-04-03T00:42:35;13.67;;;5.47;;
27612;SDS011;15036;48.094;-1.690;2023-04-03T00:47:28;14.23;;;5.80;;
27612;SDS011;15036;48.094;-1.690;2023-04-03T00:49:55;16.70;;;5.45;;
27612;SDS011;15036;48.094;-1.690;2023-04-03T00:52:22;15.73;;;6.28;;
27612;SDS011;15036;48.094;-1.690;2023-04-03T00:54:54;15.30;;;5.68;;
27612;SDS011;15036;48.094;-1.690;2023-04-03T00:57:22;13.67;;;5.20;;
27612;SDS011;15036;48.094;-1.690;2023-04-03T00:59:50;13.63;;;5.63;;
27612;SDS011;15036;48.094;-1.690;2023-04-03T01:02:20;18.58;;;5.70;;
27612;SDS011;15036;48.094;-1.690;2023-04-03T01:04:46;13.38;;;5.28;;
27612;SDS011;15036;48.094;-1.690;2023-04-03T01:07:13;14.95;;;5.28;;
27612;SDS011;15036;48.094;-1.690;2023-04-03T01:09:43;13.07;;;5.28;;
27612;SDS011;15036;48.094;-1.690;2023-04-03T01:12:18;15.80;;;5.10;;
27612;SDS011;15036;48.094;-1.690;2023-04-03T01:14:50;15.80;;;5.30;;
27612;SDS011;15036;48.094;-1.690;2023-04-03T01:17:34;14.75;;;5.43;;
27612;SDS011;15036;48.094;-1.690;2023-04-03T01:25:34;14.77;;;5.47;;
27612;SDS011;15036;48.094;-1.690;2023-04-03T01:28:07;13.07;;;5.20;;
27612;SDS011;15036;48.094;-1.690;2023-04-03T01:30:35;15.52;;;4.90;;
27612;SDS011;15036;48.094;-1.690;2023-04-03T01:33:07;16.13;;;5.25;;
27612;SDS011;15036;48.094;-1.690;2023-04-03T01:35:32;16.97;;;5.23;;
27612;SDS011;15036;48.094;-1.690;2023-04-03T01:37:57;16.07;;;5.17;;
27612;SDS011;15036;48.094;-1.690;2023-04-03T01:40:23;15.25;;;5.07;;
27612;SDS011;15036;48.094;-1.690;2023-04-03T01:42:48;13.75;;;5.65;;
27612;SDS011;15036;48.094;-1.690;2023-04-03T01:45:14;14.33;;;5.50;;
27612;SDS011;15036;48.094;-1.690;2023-04-03T01:47:39;16.50;;;5.40;;
27612;SDS011;15036;48.094;-1.690;2023-04-03T01:50:05;13.98;;;5.05;;
27612;SDS011;15036;48.094;-1.690;2023-04-03T01:52:30;14.20;;;5.50;;
27612;SDS011;15036;48.094;-1.690;2023-04-03T01:54:56;15.27;;;5.17;;
27612;SDS011;15036;48.094;-1.690;2023-04-03T01:57:21;15.20;;;5.77;;
27612;SDS011;15036;48.094;-1.690;2023-04-03T01:59:46;15.98;;;5.53;;
27612;SDS011;15036;48.094;-1.690;2023-04-03T02:02:12;16.27;;;5.45;;
27612;SDS011;15036;48.094;-1.690;2023-04-03T02:04:39;13.75;;;5.93;;
27612;SDS011;15036;48.094;-1.690;2023-04-03T02:07:05;16.35;;;5.35;;
27612;SDS011;15036;48.094;-1.690;2023-04-03T02:09:30;14.68;;;5.30;;
27612;SDS011;15036;48.094;-1.690;2023-04-03T02:11:56;15.23;;;5.30;;
27612;SDS011;15036;48.094;-1.690;2023-04-03T02:14:21;16.37;;;5.57;;
27612;SDS011;15036;48.094;-1.690;2023-04-03T02:16:48;16.80;;;5.82;;
27612;SDS011;15036;48.094;-1.690;2023-04-03T02:19:14;11.87;;;4.70;;
27612;SDS011;15036;48.094;-1.690;2023-04-03T02:21:39;15.00;;;5.03;;
27612;SDS011;15036;48.094;-1.690;2023-04-03T02:24:05;16.90;;;5.40;;
27612;SDS011;15036;48.094;-1.690;2023-04-03T02:26:30;16.33;;;5.23;;
27612;SDS011;15036;48.094;-1.690;2023-04-03T02:28:56;13.60;;;4.90;;
27612;SDS011;15036;48.094;-1.690;2023-04-03T02:31:22;13.40;;;5.13;;
27612;SDS011;15036;48.094;-1.690;2023-04-03T02:33:47;18.42;;;5.63;;
27612;SDS011;15036;48.094;-1.690;2023-04-03T02:36:13;12.77;;;4.95;;
27612;SDS011;15036;48.094;-1.690;2023-04-03T02:38:38;16.02;;;5.30;;
27612;SDS011;15036;48.094;-1.690;2023-04-03T02:41:04;16.88;;;5.10;;
27612;SDS011;15036;48.094;-1.690;2023-04-03T02:43:32;15.27;;;4.90;;
27612;SDS011;15036;48.094;-1.690;2023-04-03T02:45:58;14.82;;;5.10;;
27612;SDS011;15036;48.094;-1.690;2023-04-03T02:48:23;13.98;;;4.68;;
27612;SDS011;15036;48.094;-1.690;2023-04-03T02:50:49;13.20;;;4.60;;
27612;SDS011;15036;48.094;-1.690;2023-04-03T02:53:15;18.00;;;5.03;;
27612;SDS011;15036;48.094;-1.690;2023-04-03T02:55:40;14.60;;;4.65;;
27612;SDS011;15036;48.094;-1.690;2023-04-03T02:58:06;17.48;;;5.10;;
27612;SDS011;15036;48.094;-1.690;2023-04-03T03:00:31;16.35;;;5.10;;
27612;SDS011;15036;48.094;-1.690;2023-04-03T03:02:57;13.30;;;4.85;;
27612;SDS011;15036;48.094;-1.690;2023-04-03T03:05:22;14.17;;;4.60;;
27612;SDS011;15036;48.094;-1.690;2023-04-03T03:07:48;16.77;;;4.80;;
27612;SDS011;15036;48.094;-1.690;2023-04-03T03:10:13;15.50;;;4.70;;
27612;SDS011;15036;48.094;-1.690;2023-04-03T03:12:39;14.43;;;5.15;;
27612;SDS011;15036;48.094;-1.690;2023-04-03T03:15:05;16.80;;;4.90;;
27612;SDS011;15036;48.094;-1.690;2023-04-03T03:17:31;14.02;;;5.10;;
27612;SDS011;15036;48.094;-1.690;2023-04-03T03:19:56;16.48;;;4.68;;
27612;SDS011;15036;48.094;-1.690;2023-04-03T03:22:22;16.58;;;4.75;;
27612;SDS011;15036;48.094;-1.690;2023-04-03T03:24:47;14.73;;;4.37;;
27612;SDS011;15036;48.094;-1.690;2023-04-03T03:27:12;15.43;;;4.70;;
27612;SDS011;15036;48.094;-1.690;2023-04-03T03:29:38;16.33;;;4.47;;
27612;SDS011;15036;48.094;-1.690;2023-04-03T03:32:03;13.20;;;4.43;;
27612;SDS011;15036;48.094;-1.690;2023-04-03T03:34:29;19.57;;;4.83;;
27612;SDS011;15036;48.094;-1.690;2023-04-03T03:36:54;13.47;;;4.00;;
27612;SDS011;15036;48.094;-1.690;2023-04-03T03:39:20;14.63;;;4.40;;
27612;SDS011;15036;48.094;-1.690;2023-04-03T03:41:46;14.70;;;4.78;;
27612;SDS011;15036;48.094;-1.690;2023-04-03T03:44:12;16.57;;;4.80;;
27612;SDS011;15036;48.094;-1.690;2023-04-03T03:46:38;17.10;;;4.88;;
27612;SDS011;15036;48.094;-1.690;2023-04-03T03:49:03;15.80;;;4.40;;
27612;SDS011;15036;48.094;-1.690;2023-04-03T03:51:29;13.03;;;4.37;;
27612;SDS011;15036;48.094;-1.690;2023-04-03T03:53:54;13.90;;;4.13;;
27612;SDS011;15036;48.094;-1.690;2023-04-03T03:56:20;18.60;;;4.90;;
27612;SDS011;15036;48.094;-1.690;2023-04-03T03:58:45;13.67;;;4.47;;
27612;SDS011;15036;48.094;-1.690;2023-04-03T04:01:10;14.40;;;4.30;;
27612;SDS011;15036;48.094;-1.690;2023-04-03T04:03:36;11.57;;;4.27;;
27612;SDS011;15036;48.094;-1.690;2023-04-03T04:06:02;14.75;;;4.70;;
27612;SDS011;15036;48.094;-1.690;2023-04-03T04:08:27;14.43;;;4.80;;
27612;SDS011;15036;48.094;-1.690;2023-04-03T04:10:53;14.07;;;4.67;;
27612;SDS011;15036;48.094;-1.690;2023-04-03T04:13:18;14.80;;;4.97;;
27612;SDS011;15036;48.094;-1.690;2023-04-03T04:15:44;12.27;;;4.30;;
27612;SDS011;15036;48.094;-1.690;2023-04-03T04:18:10;12.40;;;4.53;;
27612;SDS011;15036;48.094;-1.690;2023-04-03T04:20:35;13.50;;;4.83;;
27612;SDS011;15036;48.094;-1.690;2023-04-03T04:23:01;12.90;;;4.60;;
27612;SDS011;15036;48.094;-1.690;2023-04-03T04:25:26;14.40;;;4.63;;
27612;SDS011;15036;48.094;-1.690;2023-04-03T04:27:52;13.33;;;4.43;;
27612;SDS011;15036;48.094;-1.690;2023-04-03T04:30:17;15.10;;;4.57;;
27612;SDS011;15036;48.094;-1.690;2023-04-03T04:32:42;15.18;;;4.40;;
27612;SDS011;15036;48.094;-1.690;2023-04-03T04:35:08;14.55;;;4.45;;
27612;SDS011;15036;48.094;-1.690;2023-04-03T04:37:33;14.98;;;4.60;;
27612;SDS011;15036;48.094;-1.690;2023-04-03T04:39:59;15.20;;;4.63;;
27612;SDS011;15036;48.094;-1.690;2023-04-03T04:42:26;15.70;;;4.60;;
27612;SDS011;15036;48.094;-1.690;2023-04-03T04:44:51;12.33;;;4.37;;
27612;SDS011;15036;48.094;-1.690;2023-04-03T04:47:16;14.30;;;4.27;;
27612;SDS011;15036;48.094;-1.690;2023-04-03T04:49:42;14.17;;;4.37;;
27612;SDS011;15036;48.094;-1.690;2023-04-03T04:52:07;13.37;;;4.30;;
27612;SDS011;15036;48.094;-1.690;2023-04-03T04:54:33;12.60;;;3.97;;
27612;SDS011;15036;48.094;-1.690;2023-04-03T04:56:58;14.37;;;4.37;;
27612;SDS011;15036;48.094;-1.690;2023-04-03T04:59:23;11.40;;;4.00;;
27612;SDS011;15036;48.094;-1.690;2023-04-03T05:01:49;13.47;;;4.47;;
27612;SDS011;15036;48.094;-1.690;2023-04-03T05:04:14;13.63;;;4.40;;
27612;SDS011;15036;48.094;-1.690;2023-04-03T05:06:40;12.50;;;3.97;;
27612;SDS011;15036;48.094;-1.690;2023-04-03T05:09:06;15.03;;;4.30;;
27612;SDS011;15036;48.094;-1.690;2023-04-03T05:11:31;12.57;;;4.25;;
27612;SDS011;15036;48.094;-1.690;2023-04-03T05:13:57;14.90;;;4.25;;
27612;SDS011;15036;48.094;-1.690;2023-04-03T05:16:22;11.90;;;4.20;;
27612;SDS011;15036;48.094;-1.690;2023-04-03T05:18:48;12.77;;;4.15;;
27612;SDS011;15036;48.094;-1.690;2023-04-03T05:21:13;12.13;;;4.10;;
27612;SDS011;15036;48.094;-1.690;2023-04-03T05:23:39;13.38;;;4.40;;
27612;SDS011;15036;48.094;-1.690;2023-04-03T05:26:04;11.85;;;3.92;;
27612;SDS011;15036;48.094;-1.690;2023-04-03T05:28:30;10.20;;;4.22;;
27612;SDS011;15036;48.094;-1.690;2023-04-03T05:30:56;11.70;;;4.27;;
27612;SDS011;15036;48.094;-1.690;2023-04-03T05:33:22;11.75;;;4.10;;
27612;SDS011;15036;48.094;-1.690;2023-04-03T05:35:48;12.18;;;4.47;;
27612;SDS011;15036;48.094;-1.690;2023-04-03T05:38:13;14.60;;;4.77;;
27612;SDS011;15036;48.094;-1.690;2023-04-03T05:40:39;13.40;;;4.60;;
27612;SDS011;15036;48.094;-1.690;2023-04-03T05:43:05;12.50;;;4.83;;
27612;SDS011;15036;48.094;-1.690;2023-04-03T05:45:30;13.43;;;4.72;;
27612;SDS011;15036;48.094;-1.690;2023-04-03T05:47:56;11.02;;;4.28;;
27612;SDS011;15036;48.094;-1.690;2023-04-03T05:50:21;11.32;;;4.30;;
27612;SDS011;15036;48.094;-1.690;2023-04-03T05:52:47;10.07;;;4.90;;
27612;SDS011;15036;48.094;-1.690;2023-04-03T05:55:15;10.95;;;4.80;;
27612;SDS011;15036;48.094;-1.690;2023-04-03T05:57:40;13.33;;;5.30;;
27612;SDS011;15036;48.094;-1.690;2023-04-03T06:00:07;15.27;;;4.87;;
27612;SDS011;15036;48.094;-1.690;2023-04-03T06:02:37;10.15;;;4.50;;
27612;SDS011;15036;48.094;-1.690;2023-04-03T06:05:03;11.90;;;4.77;;
27612;SDS011;15036;48.094;-1.690;2023-04-03T06:07:29;12.75;;;5.18;;
27612;SDS011;15036;48.094;-1.690;2023-04-03T06:09:55;11.03;;;4.90;;
27612;SDS011;15036;48.094;-1.690;2023-04-03T06:12:21;12.20;;;5.10;;
27612;SDS011;15036;48.094;-1.690;2023-04-03T06:14:47;13.73;;;5.53;;
27612;SDS011;15036;48.094;-1.690;2023-04-03T06:17:13;12.05;;;5.13;;
27612;SDS011;15036;48.094;-1.690;2023-04-03T06:19:40;11.80;;;5.18;;
27612;SDS011;15036;48.094;-1.690;2023-04-03T06:22:06;11.88;;;5.10;;
27612;SDS011;15036;48.094;-1.690;2023-04-03T06:24:32;10.27;;;4.80;;
27612;SDS011;15036;48.094;-1.690;2023-04-03T06:26:57;11.55;;;4.85;;
27612;SDS011;15036;48.094;-1.690;2023-04-03T06:29:23;10.07;;;4.70;;
27612;SDS011;15036;48.094;-1.690;2023-04-03T06:31:49;9.88;;;4.57;;
27612;SDS011;15036;48.094;-1.690;2023-04-03T06:34:16;17.48;;;5.85;;
27612;SDS011;15036;48.094;-1.690;2023-04-03T06:36:43;11.35;;;4.70;;
27612;SDS011;15036;48.094;-1.690;2023-04-03T06:39:13;9.50;;;4.50;;
27612;SDS011;15036;48.094;-1.690;2023-04-03T06:41:40;11.35;;;4.57;;
27612;SDS011;15036;48.094;-1.690;2023-04-03T06:44:06;9.30;;;4.80;;
27612;SDS011;15036;48.094;-1.690;2023-04-03T06:46:35;9.77;;;4.40;;
27612;SDS011;15036;48.094;-1.690;2023-04-03T06:49:01;10.30;;;4.80;;
27612;SDS011;15036;48.094;-1.690;2023-04-03T06:51:27;11.32;;;4.70;;
27612;SDS011;15036;48.094;-1.690;2023-04-03T06:53:54;10.68;;;4.90;;
27612;SDS011;15036;48.094;-1.690;2023-04-03T06:56:21;11.65;;;5.13;;
27612;SDS011;15036;48.094;-1.690;2023-04-03T06:58:47;11.63;;;5.28;;
27612;SDS011;15036;48.094;-1.690;2023-04-03T07:01:14;8.40;;;4.50;;
27612;SDS011;15036;48.094;-1.690;2023-04-03T07:03:41;10.93;;;4.80;;
27612;SDS011;15036;48.094;-1.690;2023-04-03T07:06:08;11.05;;;5.30;;
27612;SDS011;15036;48.094;-1.690;2023-04-03T07:08:36;11.23;;;5.53;;
27612;SDS011;15036;48.094;-1.690;2023-04-03T07:11:02;9.48;;;5.25;;
27612;SDS011;15036;48.094;-1.690;2023-04-03T07:13:28;8.43;;;4.97;;
27612;SDS011;15036;48.094;-1.690;2023-04-03T07:15:53;10.90;;;5.20;;
27612;SDS011;15036;48.094;-1.690;2023-04-03T07:18:19;10.77;;;5.32;;
27612;SDS011;15036;48.094;-1.690;2023-04-03T07:20:44;11.10;;;5.40;;
27612;SDS011;15036;48.094;-1.690;2023-04-03T07:23:10;9.95;;;5.20;;
27612;SDS011;15036;48.094;-1.690;2023-04-03T07:25:36;11.23;;;5.50;;
27612;SDS011;15036;48.094;-1.690;2023-04-03T07:28:02;8.63;;;5.00;;
27612;SDS011;15036;48.094;-1.690;2023-04-03T07:30:28;7.73;;;5.33;;
27612;SDS011;15036;48.094;-1.690;2023-04-03T07:32:54;8.25;;;5.10;;
27612;SDS011;15036;48.094;-1.690;2023-04-03T07:35:20;11.98;;;5.70;;
27612;SDS011;15036;48.094;-1.690;2023-04-03T07:37:45;11.07;;;5.57;;
27612;SDS011;15036;48.094;-1.690;2023-04-03T07:40:11;9.50;;;5.57;;
27612;SDS011;15036;48.094;-1.690;2023-04-03T07:42:36;9.50;;;5.60;;
27612;SDS011;15036;48.094;-1.690;2023-04-03T07:45:02;9.20;;;5.50;;
27612;SDS011;15036;48.094;-1.690;2023-04-03T07:47:29;10.27;;;5.68;;
27612;SDS011;15036;48.094;-1.690;2023-04-03T07:49:54;7.90;;;5.28;;
27612;SDS011;15036;48.094;-1.690;2023-04-03T07:52:22;9.50;;;5.82;;
27612;SDS011;15036;48.094;-1.690;2023-04-03T07:54:47;11.57;;;6.13;;
27612;SDS011;15036;48.094;-1.690;2023-04-03T07:57:13;10.83;;;6.13;;
27612;SDS011;15036;48.094;-1.690;2023-04-03T07:59:38;10.65;;;6.13;;
27612;SDS011;15036;48.094;-1.690;2023-04-03T08:02:07;11.05;;;6.22;;
27612;SDS011;15036;48.094;-1.690;2023-04-03T08:04:35;9.73;;;6.22;;
27612;SDS011;15036;48.094;-1.690;2023-04-03T08:07:01;8.35;;;6.10;;
27612;SDS011;15036;48.094;-1.690;2023-04-03T08:09:26;11.35;;;6.50;;
27612;SDS011;15036;48.094;-1.690;2023-04-03T08:11:51;10.97;;;6.87;;
27612;SDS011;15036;48.094;-1.690;2023-04-03T08:14:18;10.13;;;6.10;;
27612;SDS011;15036;48.094;-1.690;2023-04-03T08:16:44;11.30;;;6.50;;
27612;SDS011;15036;48.094;-1.690;2023-04-03T08:19:11;10.70;;;6.25;;
27612;SDS011;15036;48.094;-1.690;2023-04-03T08:21:40;9.40;;;6.25;;
27612;SDS011;15036;48.094;-1.690;2023-04-03T08:24:06;10.80;;;6.20;;
27612;SDS011;15036;48.094;-1.690;2023-04-03T08:26:32;10.60;;;6.53;;
27612;SDS011;15036;48.094;-1.690;2023-04-03T08:28:58;9.10;;;6.43;;
27612;SDS011;15036;48.094;-1.690;2023-04-03T08:31:23;9.93;;;6.47;;
27612;SDS011;15036;48.094;-1.690;2023-04-03T08:33:48;10.03;;;6.67;;
27612;SDS011;15036;48.094;-1.690;2023-04-03T08:36:22;10.02;;;6.95;;
27612;SDS011;15036;48.094;-1.690;2023-04-03T08:38:50;10.98;;;6.75;;
27612;SDS011;15036;48.094;-1.690;2023-04-03T08:43:58;10.48;;;6.78;;
27612;SDS011;15036;48.094;-1.690;2023-04-03T08:46:35;10.30;;;6.90;;
27612;SDS011;15036;48.094;-1.690;2023-04-03T08:49:22;11.57;;;6.93;;
27612;SDS011;15036;48.094;-1.690;2023-04-03T08:51:50;9.60;;;7.32;;
27612;SDS011;15036;48.094;-1.690;2023-04-03T08:57:17;9.75;;;7.05;;
27612;SDS011;15036;48.094;-1.690;2023-04-03T08:59:49;10.05;;;7.38;;
27612;SDS011;15036;48.094;-1.690;2023-04-03T09:02:23;10.95;;;6.95;;
27612;SDS011;15036;48.094;-1.690;2023-04-03T09:04:53;10.93;;;7.28;;
27612;SDS011;15036;48.094;-1.690;2023-04-03T09:07:39;9.77;;;7.72;;
27612;SDS011;15036;48.094;-1.690;2023-04-03T09:10:10;9.88;;;7.55;;
27612;SDS011;15036;48.094;-1.690;2023-04-03T09:12:38;10.20;;;7.70;;
27612;SDS011;15036;48.094;-1.690;2023-04-03T09:22:55;10.00;;;8.32;;
27612;SDS011;15036;48.094;-1.690;2023-04-03T09:25:25;11.35;;;9.20;;
27612;SDS011;15036;48.094;-1.690;2023-04-03T09:28:00;10.95;;;9.40;;
27612;SDS011;15036;48.094;-1.690;2023-04-03T09:30:27;11.43;;;9.20;;
27612;SDS011;15036;48.094;-1.690;2023-04-03T09:32:54;10.80;;;9.07;;
27612;SDS011;15036;48.094;-1.690;2023-04-03T09:35:31;11.27;;;9.60;;
27612;SDS011;15036;48.094;-1.690;2023-04-03T09:37:59;11.30;;;9.30;;
27612;SDS011;15036;48.094;-1.690;2023-04-03T09:42:54;11.73;;;9.87;;
27612;SDS011;15036;48.094;-1.690;2023-04-03T09:45:30;12.27;;;9.80;;
27612;SDS011;15036;48.094;-1.690;2023-04-03T09:50:38;12.70;;;10.88;;
27612;SDS011;15036;48.094;-1.690;2023-04-03T09:55:58;11.98;;;10.35;;
27612;SDS011;15036;48.094;-1.690;2023-04-03T09:58:29;12.27;;;10.98;;
27612;SDS011;15036;48.094;-1.690;2023-04-03T10:00:58;12.65;;;11.00;;
27612;SDS011;15036;48.094;-1.690;2023-04-03T10:03:27;11.88;;;10.60;;
27612;SDS011;15036;48.094;-1.690;2023-04-03T10:05:53;12.35;;;11.02;;
27612;SDS011;15036;48.094;-1.690;2023-04-03T10:08:38;12.45;;;11.13;;
27612;SDS011;15036;48.094;-1.690;2023-04-03T10:11:11;12.20;;;10.70;;
27612;SDS011;15036;48.094;-1.690;2023-04-03T10:13:51;12.27;;;10.98;;
27612;SDS011;15036;48.094;-1.690;2023-04-03T10:16:41;12.48;;;11.18;;
27612;SDS011;15036;48.094;-1.690;2023-04-03T10:19:25;12.83;;;11.47;;
27612;SDS011;15036;48.094;-1.690;2023-04-03T10:21:57;12.38;;;11.02;;
27612;SDS011;15036;48.094;-1.690;2023-04-03T10:34:57;12.52;;;11.10;;
27612;SDS011;15036;48.094;-1.690;2023-04-03T10:37:55;12.38;;;11.07;;
27612;SDS011;15036;48.094;-1.690;2023-04-03T10:41:03;13.52;;;11.85;;
27612;SDS011;15036;48.094;-1.690;2023-04-03T10:43:38;13.07;;;11.77;;
27612;SDS011;15036;48.094;-1.690;2023-04-03T10:46:27;12.93;;;11.52;;
27612;SDS011;15036;48.094;-1.690;2023-04-03T10:57:02;12.57;;;11.27;;
27612;SDS011;15036;48.094;-1.690;2023-04-03T11:02:11;12.07;;;10.93;;
27612;SDS011;15036;48.094;-1.690;2023-04-03T11:04:44;12.60;;;11.40;;
27612;SDS011;15036;48.094;-1.690;2023-04-03T11:07:23;12.45;;;11.15;;
27612;SDS011;15036;48.094;-1.690;2023-04-03T11:09:55;12.65;;;11.35;;
27612;SDS011;15036;48.094;-1.690;2023-04-03T11:15:13;12.60;;;11.27;;
27612;SDS011;15036;48.094;-1.690;2023-04-03T11:17:42;12.40;;;11.10;;
27612;SDS011;15036;48.094;-1.690;2023-04-03T11:20:26;12.30;;;11.10;;
27612;SDS011;15036;48.094;-1.690;2023-04-03T11:25:30;12.32;;;11.13;;
27612;SDS011;15036;48.094;-1.690;2023-04-03T11:27:59;12.77;;;11.48;;
27612;SDS011;15036;48.094;-1.690;2023-04-03T11:35:52;12.27;;;11.07;;
27612;SDS011;15036;48.094;-1.690;2023-04-03T11:38:35;12.18;;;10.98;;
27612;SDS011;15036;48.094;-1.690;2023-04-03T11:41:06;12.05;;;10.63;;
27612;SDS011;15036;48.094;-1.690;2023-04-03T11:43:33;12.20;;;11.00;;
27612;SDS011;15036;48.094;-1.690;2023-04-03T11:46:06;13.40;;;12.00;;
27612;SDS011;15036;48.094;-1.690;2023-04-03T11:51:01;12.27;;;10.98;;
27612;SDS011;15036;48.094;-1.690;2023-04-03T11:53:34;12.60;;;11.30;;
27612;SDS011;15036;48.094;-1.690;2023-04-03T12:04:26;13.13;;;11.73;;
27612;SDS011;15036;48.094;-1.690;2023-04-03T12:07:11;12.75;;;11.40;;
27612;SDS011;15036;48.094;-1.690;2023-04-03T12:15:24;10.85;;;9.85;;
27612;SDS011;15036;48.094;-1.690;2023-04-03T12:21:09;11.75;;;10.65;;
27612;SDS011;15036;48.094;-1.690;2023-04-03T12:23:55;11.48;;;10.38;;
27612;SDS011;15036;48.094;-1.690;2023-04-03T12:26:33;10.82;;;9.80;;
27612;SDS011;15036;48.094;-1.690;2023-04-03T12:29:03;11.48;;;10.38;;
27612;SDS011;15036;48.094;-1.690;2023-04-03T12:45:21;10.50;;;9.50;;
27612;SDS011;15036;48.094;-1.690;2023-04-03T12:47:52;10.20;;;9.20;;
27612;SDS011;15036;48.094;-1.690;2023-04-03T12:50:30;10.20;;;9.20;;
27612;SDS011;15036;48.094;-1.690;2023-04-03T12:53:04;9.95;;;9.05;;
27612;SDS011;15036;48.094;-1.690;2023-04-03T12:55:36;9.48;;;8.57;;
27612;SDS011;15036;48.094;-1.690;2023-04-03T12:58:21;9.23;;;8.43;;
27612;SDS011;15036;48.094;-1.690;2023-04-03T13:00:58;9.00;;;8.20;;
27612;SDS011;15036;48.094;-1.690;2023-04-03T13:03:37;9.98;;;8.98;;
27612;SDS011;15036;48.094;-1.690;2023-04-03T13:06:05;9.50;;;8.50;;
27612;SDS011;15036;48.094;-1.690;2023-04-03T13:08:31;8.10;;;7.40;;
27612;SDS011;15036;48.094;-1.690;2023-04-03T13:11:07;8.77;;;7.90;;
27612;SDS011;15036;48.094;-1.690;2023-04-03T13:13:35;8.85;;;8.05;;
27612;SDS011;15036;48.094;-1.690;2023-04-03T13:16:09;8.20;;;7.40;;
27612;SDS011;15036;48.094;-1.690;2023-04-03T13:18:36;8.87;;;8.07;;
27612;SDS011;15036;48.094;-1.690;2023-04-03T13:21:07;7.72;;;6.93;;
27612;SDS011;15036;48.094;-1.690;2023-04-03T13:23:38;8.70;;;7.90;;
27612;SDS011;15036;48.094;-1.690;2023-04-03T13:26:07;7.80;;;7.00;;
27612;SDS011;15036;48.094;-1.690;2023-04-03T13:28:33;7.57;;;6.80;;
27612;SDS011;15036;48.094;-1.690;2023-04-03T13:31:42;7.35;;;6.63;;
27612;SDS011;15036;48.094;-1.690;2023-04-03T13:36:45;7.25;;;6.55;;
27612;SDS011;15036;48.094;-1.690;2023-04-03T13:41:50;7.40;;;6.17;;
27612;SDS011;15036;48.094;-1.690;2023-04-03T13:46:48;7.50;;;6.80;;
27612;SDS011;15036;48.094;-1.690;2023-04-03T13:49:21;7.23;;;6.27;;
27612;SDS011;15036;48.094;-1.690;2023-04-03T13:52:20;7.28;;;6.03;;
27612;SDS011;15036;48.094;-1.690;2023-04-03T13:54:55;6.57;;;5.97;;
27612;SDS011;15036;48.094;-1.690;2023-04-03T13:57:26;6.82;;;6.13;;
27612;SDS011;15036;48.094;-1.690;2023-04-03T13:59:52;7.10;;;6.40;;
27612;SDS011;15036;48.094;-1.690;2023-04-03T14:02:31;6.80;;;5.80;;
27612;SDS011;15036;48.094;-1.690;2023-04-03T14:04:59;6.50;;;5.80;;
27612;SDS011;15036;48.094;-1.690;2023-04-03T14:07:27;6.10;;;5.50;;
27612;SDS011;15036;48.094;-1.690;2023-04-03T14:09:54;6.07;;;5.50;;
27612;SDS011;15036;48.094;-1.690;2023-04-03T14:14:57;7.65;;;6.35;;
27612;SDS011;15036;48.094;-1.690;2023-04-03T14:17:24;7.47;;;5.72;;
27612;SDS011;15036;48.094;-1.690;2023-04-03T14:19:53;5.55;;;4.82;;
27612;SDS011;15036;48.094;-1.690;2023-04-03T14:24:47;5.50;;;5.00;;
27612;SDS011;15036;48.094;-1.690;2023-04-03T14:27:27;5.53;;;4.75;;
27612;SDS011;15036;48.094;-1.690;2023-04-03T14:29:55;5.03;;;4.38;;
27612;SDS011;15036;48.094;-1.690;2023-04-03T14:32:23;6.22;;;5.10;;
27612;SDS011;15036;48.094;-1.690;2023-04-03T14:34:50;6.55;;;5.20;;
27612;SDS011;15036;48.094;-1.690;2023-04-03T14:37:17;5.18;;;4.68;;
27612;SDS011;15036;48.094;-1.690;2023-04-03T14:39:48;6.03;;;5.10;;
27612;SDS011;15036;48.094;-1.690;2023-04-03T14:42:15;5.53;;;5.00;;
27612;SDS011;15036;48.094;-1.690;2023-04-03T14:44:43;5.72;;;4.82;;
27612;SDS011;15036;48.094;-1.690;2023-04-03T14:47:12;5.20;;;4.70;;
27612;SDS011;15036;48.094;-1.690;2023-04-03T14:49:40;4.82;;;4.43;;
27612;SDS011;15036;48.094;-1.690;2023-04-03T14:52:06;5.30;;;4.50;;
27612;SDS011;15036;48.094;-1.690;2023-04-03T14:54:56;5.38;;;4.75;;
27612;SDS011;15036;48.094;-1.690;2023-04-03T14:57:23;5.20;;;4.70;;
27612;SDS011;15036;48.094;-1.690;2023-04-03T14:59:50;5.50;;;4.60;;
27612;SDS011;15036;48.094;-1.690;2023-04-03T15:02:24;4.57;;;3.77;;
27612;SDS011;15036;48.094;-1.690;2023-04-03T15:04:58;4.90;;;4.13;;
27612;SDS011;15036;48.094;-1.690;2023-04-03T15:07:25;5.38;;;4.50;;
27612;SDS011;15036;48.094;-1.690;2023-04-03T15:09:53;4.57;;;4.18;;
27612;SDS011;15036;48.094;-1.690;2023-04-03T15:12:21;5.15;;;4.18;;
27612;SDS011;15036;48.094;-1.690;2023-04-03T15:14:47;4.57;;;3.70;;
27612;SDS011;15036;48.094;-1.690;2023-04-03T15:17:16;4.68;;;4.15;;
27612;SDS011;15036;48.094;-1.690;2023-04-03T15:19:47;4.90;;;4.25;;
27612;SDS011;15036;48.094;-1.690;2023-04-03T15:22:14;4.50;;;4.10;;
27612;SDS011;15036;48.094;-1.690;2023-04-03T15:24:41;5.10;;;4.10;;
27612;SDS011;15036;48.094;-1.690;2023-04-03T15:27:07;4.93;;;3.67;;
27612;SDS011;15036;48.094;-1.690;2023-04-03T15:29:32;4.57;;;3.97;;
27612;SDS011;15036;48.094;-1.690;2023-04-03T15:31:58;5.68;;;4.00;;
27612;SDS011;15036;48.094;-1.690;2023-04-03T15:34:23;4.87;;;3.77;;
27612;SDS011;15036;48.094;-1.690;2023-04-03T15:36:49;5.15;;;4.50;;
27612;SDS011;15036;48.094;-1.690;2023-04-03T15:39:17;5.28;;;3.90;;
27612;SDS011;15036;48.094;-1.690;2023-04-03T15:41:43;4.70;;;4.30;;
27612;SDS011;15036;48.094;-1.690;2023-04-03T15:44:10;4.57;;;4.13;;
27612;SDS011;15036;48.094;-1.690;2023-04-03T15:46:37;4.03;;;3.63;;
27612;SDS011;15036;48.094;-1.690;2023-04-03T15:49:03;4.68;;;4.10;;
27612;SDS011;15036;48.094;-1.690;2023-04-03T15:51:29;4.95;;;3.88;;
27612;SDS011;15036;48.094;-1.690;2023-04-03T15:53:55;5.03;;;4.50;;
27612;SDS011;15036;48.094;-1.690;2023-04-03T15:56:20;5.47;;;4.97;;
27612;SDS011;15036;48.094;-1.690;2023-04-03T15:58:46;4.47;;;4.07;;
27612;SDS011;15036;48.094;-1.690;2023-04-03T16:01:11;4.43;;;4.00;;
27612;SDS011;15036;48.094;-1.690;2023-04-03T16:03:36;4.93;;;4.40;;
27612;SDS011;15036;48.094;-1.690;2023-04-03T16:06:08;4.60;;;4.15;;
27612;SDS011;15036;48.094;-1.690;2023-04-03T16:08:34;4.38;;;3.75;;
27612;SDS011;15036;48.094;-1.690;2023-04-03T16:11:01;4.32;;;3.53;;
27612;SDS011;15036;48.094;-1.690;2023-04-03T16:13:27;4.75;;;4.07;;
27612;SDS011;15036;48.094;-1.690;2023-04-03T16:15:52;5.40;;;4.20;;
27612;SDS011;15036;48.094;-1.690;2023-04-03T16:18:18;4.60;;;4.10;;